createdAt,value
2023-05-01T00:01:52.496Z,100347.84
2023-05-01T00:04:57.153Z,100342.03
2023-05-01T00:08:02.355Z,100348.50
2023-05-01T00:11:09.915Z,100341.56
2023-05-01T00:14:12.700Z,100338.06
2023-05-01T00:17:15.561Z,100339.00
2023-05-01T00:20:18.303Z,100334.25
2023-05-01T00:23:21.051Z,100335.31
2023-05-01T00:26:27.425Z,100335.94
2023-05-01T00:29:31.184Z,100344.53
2023-05-01T00:32:34.595Z,100335.91
2023-05-01T00:35:37.657Z,100331.94
2023-05-01T00:38:40.353Z,100330.84
2023-05-01T00:41:43.716Z,100340.78
2023-05-01T00:44:46.215Z,100335.13
2023-05-01T00:47:50.409Z,100335.37
2023-05-01T00:50:54.286Z,100340.72
2023-05-01T00:53:59.995Z,100340.59
2023-05-01T00:57:02.774Z,100338.87
2023-05-01T01:00:06.180Z,100337.09
2023-05-01T01:03:09.419Z,100345.34
2023-05-01T01:06:51.209Z,100333.97
2023-05-01T01:10:18.270Z,100346.47
2023-05-01T01:13:36.878Z,100351.41
2023-05-01T01:16:49.421Z,100354.69
2023-05-01T01:20:32.689Z,100352.22
2023-05-01T01:23:42.229Z,100348.97
2023-05-01T01:27:16.202Z,100358.81
2023-05-01T01:30:22.117Z,100346.94
2023-05-01T01:34:04.214Z,100350.75
2023-05-01T01:37:48.109Z,100334.59
2023-05-01T01:40:57.260Z,100347.00
2023-05-01T01:44:11.732Z,100349.69
2023-05-01T01:47:17.002Z,100352.53
2023-05-01T01:50:24.790Z,100343.34
2023-05-01T01:53:31.254Z,100348.19
2023-05-01T01:56:35.874Z,100347.50
2023-05-01T01:59:41.897Z,100355.81
2023-05-01T02:02:48.020Z,100344.88
2023-05-01T02:05:54.660Z,100341.97
2023-05-01T02:09:00.890Z,100349.25
2023-05-01T02:12:07.016Z,100342.31
2023-05-01T02:15:10.938Z,100337.41
2023-05-01T02:18:15.413Z,100341.50
2023-05-01T02:21:19.006Z,100345.41
2023-05-01T02:24:24.148Z,100340.78
2023-05-01T02:27:35.030Z,100347.06
2023-05-01T02:30:40.892Z,100338.87
2023-05-01T02:33:43.433Z,100341.72
2023-05-01T02:36:46.298Z,100340.12
2023-05-01T02:39:49.234Z,100342.50
2023-05-01T02:42:53.145Z,100339.53
2023-05-01T02:45:59.156Z,100349.06
2023-05-01T02:49:03.494Z,100342.03
2023-05-01T02:52:06.510Z,100346.25
2023-05-01T02:55:09.912Z,100347.88
2023-05-01T02:58:16.616Z,100344.44
2023-05-01T03:01:20.774Z,100349.28
2023-05-01T03:04:23.532Z,100347.38
2023-05-01T03:07:35.173Z,100354.63
2023-05-01T03:10:42.680Z,100356.47
2023-05-01T03:13:47.569Z,100355.00
2023-05-01T03:16:50.119Z,100361.56
2023-05-01T03:19:53.424Z,100358.19
2023-05-01T03:22:59.831Z,100366.44
2023-05-01T03:26:02.585Z,100365.81
2023-05-01T03:29:05.221Z,100359.03
2023-05-01T03:32:08.298Z,100358.53
2023-05-01T03:35:11.438Z,100361.50
2023-05-01T03:38:14.642Z,100361.28
2023-05-01T03:41:18.928Z,100364.12
2023-05-01T03:44:23.242Z,100366.22
2023-05-01T03:47:26.036Z,100367.59
2023-05-01T03:50:29.098Z,100363.34
2023-05-01T03:53:32.577Z,100366.28
2023-05-01T03:56:37.024Z,100375.63
2023-05-01T03:59:40.097Z,100369.09
2023-05-01T04:02:43.368Z,100368.22
2023-05-01T04:05:49.995Z,100374.78
2023-05-01T04:08:52.639Z,100376.37
2023-05-01T04:11:56.091Z,100373.53
2023-05-01T04:14:59.047Z,100366.22
2023-05-01T04:18:02.314Z,100364.44
2023-05-01T04:21:05.261Z,100373.09
2023-05-01T04:24:08.143Z,100373.09
2023-05-01T04:27:11.248Z,100376.09
2023-05-01T04:30:14.150Z,100372.72
2023-05-01T04:33:16.765Z,100377.97
2023-05-01T04:36:19.606Z,100375.28
2023-05-01T04:39:22.100Z,100390.06
2023-05-01T04:42:33.362Z,100379.25
2023-05-01T04:45:36.047Z,100392.50
2023-05-01T04:48:39.492Z,100401.62
2023-05-01T04:51:42.258Z,100398.62
2023-05-01T04:54:45.989Z,100392.87
2023-05-01T04:57:48.683Z,100391.81
2023-05-01T05:00:51.770Z,100394.28
2023-05-01T05:03:55.020Z,100396.00
2023-05-01T05:06:58.300Z,100394.13
2023-05-01T05:10:01.221Z,100400.94
2023-05-01T05:13:04.842Z,100403.09
2023-05-01T05:16:07.849Z,100404.62
2023-05-01T05:19:10.680Z,100409.97
2023-05-01T05:22:13.894Z,100409.66
2023-05-01T05:25:18.617Z,100407.03
2023-05-01T05:28:21.588Z,100408.56
2023-05-01T05:31:25.907Z,100410.56
2023-05-01T05:34:29.270Z,100420.13
2023-05-01T05:37:32.132Z,100415.34
2023-05-01T05:40:35.174Z,100409.41
2023-05-01T05:43:37.994Z,100409.34
2023-05-01T05:46:41.428Z,100412.78
2023-05-01T05:49:45.204Z,100409.28
2023-05-01T05:52:47.792Z,100418.56
2023-05-01T05:55:50.757Z,100408.25
2023-05-01T05:58:53.716Z,100414.56
2023-05-01T06:01:59.078Z,100416.44
2023-05-01T06:05:02.167Z,100411.50
2023-05-01T06:08:05.005Z,100421.34
2023-05-01T06:11:09.114Z,100415.78
2023-05-01T06:14:12.313Z,100422.44
2023-05-01T06:17:15.393Z,100423.19
2023-05-01T06:20:18.212Z,100426.09
2023-05-01T06:23:21.497Z,100431.94
2023-05-01T06:26:26.208Z,100428.91
2023-05-01T06:29:29.145Z,100435.28
2023-05-01T06:32:32.005Z,100430.53
2023-05-01T06:35:34.845Z,100431.06
2023-05-01T06:38:37.719Z,100436.28
2023-05-01T06:41:40.843Z,100430.09
2023-05-01T06:44:43.924Z,100438.13
2023-05-01T06:47:46.943Z,100444.31
2023-05-01T06:50:49.713Z,100449.50
2023-05-01T06:53:52.460Z,100440.78
2023-05-01T06:56:54.984Z,100449.50
2023-05-01T06:59:58.599Z,100446.84
2023-05-01T07:03:03.189Z,100442.78
2023-05-01T07:06:06.154Z,100443.66
2023-05-01T07:09:08.993Z,100448.88
2023-05-01T07:12:12.422Z,100445.94
2023-05-01T07:15:16.431Z,100447.81
2023-05-01T07:18:25.393Z,100449.81
2023-05-01T07:21:27.912Z,100454.03
2023-05-01T07:24:30.901Z,100465.00
2023-05-01T07:27:33.976Z,100454.37
2023-05-01T07:30:37.412Z,100464.41
2023-05-01T07:33:39.912Z,100451.03
2023-05-01T07:36:44.458Z,100442.28
2023-05-01T07:39:47.228Z,100445.59
2023-05-01T07:42:52.341Z,100442.34
2023-05-01T07:46:01.703Z,100451.78
2023-05-01T07:49:05.507Z,100453.22
2023-05-01T07:52:11.449Z,100462.84
2023-05-01T07:55:14.464Z,100468.00
2023-05-01T07:58:20.498Z,100481.25
2023-05-01T08:01:23.831Z,100452.66
2023-05-01T08:04:27.841Z,100445.59
2023-05-01T08:07:30.421Z,100451.78
2023-05-01T08:10:33.283Z,100462.66
2023-05-01T08:13:36.006Z,100458.25
2023-05-01T08:16:38.913Z,100464.34
2023-05-01T08:19:41.867Z,100460.94
2023-05-01T08:22:49.372Z,100457.84
2023-05-01T08:25:52.294Z,100455.75
2023-05-01T08:28:55.649Z,100470.72
2023-05-01T08:31:58.907Z,100467.41
2023-05-01T08:35:01.980Z,100443.19
2023-05-01T08:38:04.544Z,100451.13
2023-05-01T08:41:08.400Z,100445.44
2023-05-01T08:44:13.147Z,100451.53
2023-05-01T08:47:17.520Z,100434.00
2023-05-01T08:50:22.844Z,100430.25
2023-05-01T08:53:27.007Z,100436.06
2023-05-01T08:56:31.383Z,100441.66
2023-05-01T08:59:35.378Z,100441.91
2023-05-01T09:02:39.737Z,100435.31
2023-05-01T09:05:43.684Z,100435.81
2023-05-01T09:08:46.302Z,100438.81
2023-05-01T09:11:49.692Z,100442.16
2023-05-01T09:14:53.830Z,100438.25
2023-05-01T09:17:59.653Z,100435.41
2023-05-01T09:21:04.680Z,100437.19
2023-05-01T09:24:08.270Z,100435.94
2023-05-01T09:27:13.419Z,100429.91
2023-05-01T09:30:32.960Z,100425.31
2023-05-01T09:33:54.056Z,100428.62
2023-05-01T09:36:56.925Z,100438.62
2023-05-01T09:40:13.548Z,100436.28
2023-05-01T09:43:27.436Z,100429.00
2023-05-01T09:46:41.700Z,100429.66
2023-05-01T09:49:49.324Z,100433.37
2023-05-01T09:52:52.912Z,100437.41
2023-05-01T09:56:03.036Z,100424.06
2023-05-01T09:59:17.126Z,100414.72
2023-05-01T10:02:32.434Z,100414.19
2023-05-01T10:05:44.705Z,100410.59
2023-05-01T10:08:51.002Z,100411.34
2023-05-01T10:11:57.710Z,100400.72
2023-05-01T10:15:05.634Z,100392.53
2023-05-01T10:18:17.367Z,100401.41
2023-05-01T10:21:22.027Z,100399.22
2023-05-01T10:24:25.065Z,100388.41
2023-05-01T10:27:28.211Z,100404.72
2023-05-01T10:30:32.472Z,100395.22
2023-05-01T10:33:35.812Z,100389.91
2023-05-01T10:36:47.075Z,100384.22
2023-05-01T10:39:49.721Z,100374.12
2023-05-01T10:43:26.274Z,100385.09
2023-05-01T10:46:29.975Z,100367.38
2023-05-01T10:50:07.787Z,100363.22
2023-05-01T10:53:13.239Z,100365.41
2023-05-01T10:56:24.159Z,100364.53
2023-05-01T10:59:28.166Z,100350.34
2023-05-01T11:02:31.596Z,100347.88
2023-05-01T11:06:05.082Z,100352.37
2023-05-01T11:09:41.295Z,100351.22
2023-05-01T11:12:47.153Z,100354.97
2023-05-01T11:15:49.972Z,100351.03
2023-05-01T11:18:52.723Z,100343.25
2023-05-01T11:21:56.192Z,100340.03
2023-05-01T11:24:59.006Z,100332.19
2023-05-01T11:28:03.841Z,100335.66
2023-05-01T11:31:07.556Z,100336.91
2023-05-01T11:34:10.653Z,100332.84
2023-05-01T11:37:14.477Z,100323.12
2023-05-01T11:40:21.849Z,100323.22
2023-05-01T11:43:24.685Z,100307.87
2023-05-01T11:46:30.325Z,100310.47
2023-05-01T11:49:35.550Z,100310.41
2023-05-01T11:52:43.388Z,100302.66
2023-05-01T11:55:46.319Z,100306.03
2023-05-01T11:58:50.149Z,100299.41
2023-05-01T12:01:53.587Z,100303.16
2023-05-01T12:04:56.873Z,100303.62
2023-05-01T12:08:19.016Z,100302.34
2023-05-01T12:11:24.118Z,100301.44
2023-05-01T12:14:28.014Z,100298.25
2023-05-01T12:17:31.229Z,100288.69
2023-05-01T12:20:42.664Z,100306.88
2023-05-01T12:23:46.192Z,100288.69
2023-05-01T12:27:00.515Z,100287.72
2023-05-01T12:30:03.592Z,100281.41
2023-05-01T12:33:32.467Z,100290.81
2023-05-01T12:36:37.201Z,100277.56
2023-05-01T12:39:44.596Z,100274.31
2023-05-01T12:42:57.137Z,100270.19
2023-05-01T12:46:00.480Z,100262.81
2023-05-01T12:49:03.865Z,100273.44
2023-05-01T12:52:09.021Z,100260.34
2023-05-01T12:55:12.879Z,100248.59
2023-05-01T12:58:17.928Z,100251.84
2023-05-01T13:01:28.492Z,100256.75
2023-05-01T13:04:32.418Z,100246.19
2023-05-01T13:07:36.729Z,100237.41
2023-05-01T13:10:39.583Z,100241.47
2023-05-01T13:13:44.357Z,100236.84
2023-05-01T13:16:47.845Z,100241.41
2023-05-01T13:19:56.200Z,100228.41
2023-05-01T13:22:58.904Z,100234.53
2023-05-01T13:26:07.037Z,100231.19
2023-05-01T13:29:14.936Z,100222.97
2023-05-01T13:32:17.930Z,100221.59
2023-05-01T13:35:24.975Z,100216.78
2023-05-01T13:38:29.115Z,100215.34
2023-05-01T13:41:31.938Z,100215.09
2023-05-01T13:44:44.123Z,100210.53
2023-05-01T13:47:46.754Z,100210.09
2023-05-01T13:50:50.190Z,100197.94
2023-05-01T13:53:54.170Z,100189.94
2023-05-01T13:56:57.931Z,100197.41
2023-05-01T14:00:01.287Z,100190.19
2023-05-01T14:03:05.076Z,100195.84
2023-05-01T14:06:14.885Z,100185.19
2023-05-01T14:09:18.761Z,100184.69
2023-05-01T14:12:30.297Z,100175.38
2023-05-01T14:15:36.068Z,100194.97
2023-05-01T14:18:48.338Z,100178.50
2023-05-01T14:21:50.859Z,100173.56
2023-05-01T14:24:53.873Z,100175.81
2023-05-01T14:27:58.253Z,100173.44
2023-05-01T14:31:01.503Z,100170.69
2023-05-01T14:34:07.012Z,100168.16
2023-05-01T14:37:10.143Z,100159.22
2023-05-01T14:40:12.873Z,100157.66
2023-05-01T14:43:21.639Z,100158.09
2023-05-01T14:46:35.597Z,100151.09
2023-05-01T14:49:41.970Z,100149.56
2023-05-01T14:52:44.963Z,100153.38
2023-05-01T14:55:51.169Z,100139.19
2023-05-01T14:58:53.865Z,100144.38
2023-05-01T15:01:56.791Z,100143.78
2023-05-01T15:05:00.518Z,100135.28
2023-05-01T15:08:04.133Z,100138.66
2023-05-01T15:11:06.826Z,100144.44
2023-05-01T15:14:09.620Z,100140.97
2023-05-01T15:17:12.309Z,100136.56
2023-05-01T15:20:15.296Z,100144.75
2023-05-01T15:23:17.840Z,100139.53
2023-05-01T15:26:20.668Z,100136.69
2023-05-01T15:29:23.212Z,100131.22
2023-05-01T15:32:26.711Z,100133.44
2023-05-01T15:35:29.377Z,100133.50
2023-05-01T15:38:32.156Z,100137.81
2023-05-01T15:41:34.731Z,100135.22
2023-05-01T15:44:37.689Z,100128.75
2023-05-01T15:47:46.311Z,100129.94
2023-05-01T15:50:50.993Z,100123.66
2023-05-01T15:53:53.532Z,100121.66
2023-05-01T15:56:58.821Z,100118.63
2023-05-01T16:00:01.883Z,100118.06
2023-05-01T16:03:08.497Z,100125.66
2023-05-01T16:06:17.204Z,100127.78
2023-05-01T16:09:21.332Z,100121.78
2023-05-01T16:12:24.259Z,100124.69
2023-05-01T16:15:26.786Z,100138.25
2023-05-01T16:18:29.817Z,100130.78
2023-05-01T16:21:32.953Z,100121.22
2023-05-01T16:24:36.506Z,100127.12
2023-05-01T16:27:44.819Z,100126.47
2023-05-01T16:30:47.894Z,100123.78
2023-05-01T16:33:53.283Z,100121.47
2023-05-01T16:36:58.211Z,100127.84
2023-05-01T16:40:03.338Z,100121.63
2023-05-01T16:43:09.196Z,100121.66
2023-05-01T16:46:15.279Z,100130.22
2023-05-01T16:49:18.332Z,100120.53
2023-05-01T16:52:22.848Z,100113.81
2023-05-01T16:55:26.572Z,100120.50
2023-05-01T16:58:29.247Z,100116.69
2023-05-01T17:01:32.327Z,100114.53
2023-05-01T17:04:34.884Z,100114.38
2023-05-01T17:07:37.928Z,100108.53
2023-05-01T17:10:41.521Z,100103.19
2023-05-01T17:13:44.629Z,100103.88
2023-05-01T17:16:50.077Z,100108.41
2023-05-01T17:19:53.873Z,100105.22
2023-05-01T17:22:56.773Z,100108.56
2023-05-01T17:25:59.614Z,100114.59
2023-05-01T17:29:03.665Z,100101.06
2023-05-01T17:32:06.889Z,100106.25
2023-05-01T17:35:09.883Z,100106.75
2023-05-01T17:38:12.821Z,100104.38
2023-05-01T17:41:15.985Z,100105.53
2023-05-01T17:44:19.930Z,100102.00
2023-05-01T17:47:25.778Z,100101.31
2023-05-01T17:50:29.227Z,100102.28
2023-05-01T17:53:31.938Z,100101.94
2023-05-01T17:56:35.097Z,100103.78
2023-05-01T17:59:37.970Z,100094.06
2023-05-01T18:02:45.097Z,100095.56
2023-05-01T18:05:48.464Z,100087.00
2023-05-01T18:08:51.069Z,100094.50
2023-05-01T18:11:54.606Z,100090.28
2023-05-01T18:14:57.866Z,100091.59
2023-05-01T18:18:01.729Z,100095.03
2023-05-01T18:21:04.951Z,100097.53
2023-05-01T18:24:08.002Z,100101.78
2023-05-01T18:27:12.287Z,100103.81
2023-05-01T18:30:19.326Z,100096.28
2023-05-01T18:33:22.603Z,100100.22
2023-05-01T18:36:26.840Z,100097.34
2023-05-01T18:39:29.861Z,100102.38
2023-05-01T18:42:33.811Z,100104.94
2023-05-01T18:45:36.481Z,100114.25
2023-05-01T18:48:39.737Z,100116.19
2023-05-01T18:51:42.733Z,100114.87
2023-05-01T18:54:46.132Z,100116.19
2023-05-01T18:57:48.789Z,100111.19
2023-05-01T19:00:51.857Z,100116.13
2023-05-01T19:03:58.893Z,100110.69
2023-05-01T19:07:02.163Z,100120.31
2023-05-01T19:10:05.517Z,100125.84
2023-05-01T19:13:08.788Z,100129.00
2023-05-01T19:16:11.857Z,100123.13
2023-05-01T19:19:14.769Z,100120.22
2023-05-01T19:22:18.233Z,100121.59
2023-05-01T19:25:22.394Z,100117.56
2023-05-01T19:28:25.082Z,100120.97
2023-05-01T19:31:28.265Z,100124.41
2023-05-01T19:34:31.199Z,100125.44
2023-05-01T19:37:34.289Z,100122.09
2023-05-01T19:40:36.923Z,100120.47
2023-05-01T19:43:40.587Z,100118.59
2023-05-01T19:46:43.515Z,100118.50
2023-05-01T19:49:46.671Z,100122.72
2023-05-01T19:52:49.703Z,100125.50
2023-05-01T19:55:52.851Z,100115.91
2023-05-01T19:58:56.096Z,100117.72
2023-05-01T20:02:01.115Z,100121.09
2023-05-01T20:05:04.838Z,100125.88
2023-05-01T20:08:07.465Z,100120.03
2023-05-01T20:11:11.360Z,100119.63
2023-05-01T20:14:14.674Z,100127.06
2023-05-01T20:17:17.560Z,100123.59
2023-05-01T20:20:20.324Z,100116.44
2023-05-01T20:23:23.555Z,100116.03
2023-05-01T20:26:26.651Z,100114.75
2023-05-01T20:29:29.703Z,100119.53
2023-05-01T20:32:32.322Z,100116.47
2023-05-01T20:35:36.301Z,100121.38
2023-05-01T20:38:47.516Z,100120.69
2023-05-01T20:41:50.646Z,100125.03
2023-05-01T20:44:53.288Z,100122.66
2023-05-01T20:47:56.509Z,100127.16
2023-05-01T20:50:59.235Z,100122.94
2023-05-01T20:54:02.566Z,100133.03
2023-05-01T20:57:05.369Z,100127.72
2023-05-01T21:00:10.163Z,100131.78
2023-05-01T21:03:15.174Z,100146.47
2023-05-01T21:06:18.736Z,100142.28
2023-05-01T21:09:21.347Z,100142.03
2023-05-01T21:12:24.214Z,100138.94
2023-05-01T21:15:27.560Z,100129.59
2023-05-01T21:18:33.294Z,100137.97
2023-05-01T21:21:36.846Z,100142.75
2023-05-01T21:24:42.444Z,100141.19
2023-05-01T21:27:45.435Z,100142.03
2023-05-01T21:30:49.683Z,100142.72
2023-05-01T21:33:53.885Z,100142.19
2023-05-01T21:36:56.680Z,100140.66
2023-05-01T21:40:03.001Z,100148.63
2023-05-01T21:43:07.058Z,100152.69
2023-05-01T21:46:17.781Z,100149.88
2023-05-01T21:49:24.041Z,100149.88
2023-05-01T21:52:29.360Z,100150.72
2023-05-01T21:55:33.403Z,100160.09
2023-05-01T21:58:36.140Z,100150.72
2023-05-01T22:01:41.134Z,100155.75
2023-05-01T22:04:44.253Z,100155.47
2023-05-01T22:07:47.368Z,100156.03
2023-05-01T22:10:50.359Z,100152.69
2023-05-01T22:13:52.908Z,100150.97
2023-05-01T22:16:55.894Z,100150.97
2023-05-01T22:19:58.764Z,100147.09
2023-05-01T22:23:02.728Z,100148.44
2023-05-01T22:26:05.276Z,100139.09
2023-05-01T22:29:08.425Z,100149.00
2023-05-01T22:32:11.022Z,100151.50
2023-05-01T22:35:14.257Z,100152.34
2023-05-01T22:38:16.893Z,100154.00
2023-05-01T22:41:20.014Z,100142.37
2023-05-01T22:44:22.696Z,100145.72
2023-05-01T22:47:26.685Z,100142.22
2023-05-01T22:50:29.356Z,100139.81
2023-05-01T22:53:32.520Z,100145.81
2023-05-01T22:56:35.824Z,100143.03
2023-05-01T22:59:40.484Z,100141.75
2023-05-01T23:02:43.515Z,100142.03
2023-05-01T23:05:46.662Z,100133.91
2023-05-01T23:08:55.078Z,100142.63
2023-05-01T23:11:57.982Z,100139.41
2023-05-01T23:15:00.698Z,100139.66
2023-05-01T23:18:03.745Z,100143.13
2023-05-01T23:21:06.614Z,100137.66
2023-05-01T23:24:11.516Z,100142.94
2023-05-01T23:27:15.479Z,100146.75
2023-05-01T23:30:22.137Z,100135.47
2023-05-01T23:33:26.709Z,100142.97
2023-05-01T23:36:30.767Z,100139.19
2023-05-01T23:39:33.264Z,100143.31
2023-05-01T23:42:38.202Z,100144.91
2023-05-01T23:45:41.219Z,100145.34
2023-05-01T23:48:44.137Z,100142.69
2023-05-01T23:51:46.753Z,100142.00
2023-05-01T23:54:49.832Z,100140.22
2023-05-01T23:57:52.489Z,100144.97
